createdAt,value
2023-10-20T00:01:10.653Z,6.99
2023-10-20T00:03:39.115Z,7.02
2023-10-20T00:06:06.497Z,7.04
2023-10-20T00:08:33.834Z,7.03
2023-10-20T00:11:05.377Z,7.05
2023-10-20T00:13:33.530Z,7.07
2023-10-20T00:16:02.317Z,7.10
2023-10-20T00:18:29.687Z,7.10
2023-10-20T00:20:56.868Z,7.10
2023-10-20T00:23:24.099Z,7.11
2023-10-20T00:25:51.436Z,7.13
2023-10-20T00:28:18.700Z,7.14
2023-10-20T00:30:46.656Z,7.14
2023-10-20T00:33:14.037Z,7.15
2023-10-20T00:35:41.255Z,7.15
2023-10-20T00:38:08.689Z,7.15
2023-10-20T00:40:36.002Z,7.14
2023-10-20T00:43:03.570Z,7.12
2023-10-20T00:45:31.155Z,7.10
2023-10-20T00:47:58.924Z,7.11
2023-10-20T00:50:26.290Z,7.08
2023-10-20T00:52:53.988Z,7.11
2023-10-20T00:55:23.029Z,7.11
2023-10-20T00:57:51.250Z,7.13
2023-10-20T01:00:18.564Z,7.14
2023-10-20T01:02:45.946Z,7.17
2023-10-20T01:05:20.662Z,7.17
2023-10-20T01:07:47.917Z,7.17
2023-10-20T01:10:15.649Z,7.19
2023-10-20T01:12:43.350Z,7.21
2023-10-20T01:15:13.576Z,7.21
2023-10-20T01:17:42.311Z,7.19
2023-10-20T01:20:10.710Z,7.17
2023-10-20T01:22:38.102Z,7.15
2023-10-20T01:25:06.036Z,7.13
2023-10-20T01:27:33.344Z,7.13
2023-10-20T01:30:00.703Z,7.11
2023-10-20T01:32:28.056Z,7.08
2023-10-20T01:34:55.587Z,7.06
2023-10-20T01:37:22.898Z,7.06
2023-10-20T01:39:50.175Z,7.05
2023-10-20T01:42:17.344Z,7.02
2023-10-20T01:44:44.777Z,7.00
2023-10-20T01:47:12.671Z,7.00
2023-10-20T01:49:40.096Z,7.00
2023-10-20T01:52:08.964Z,6.97
2023-10-20T01:54:36.281Z,6.96
2023-10-20T01:57:03.670Z,6.95
2023-10-20T01:59:31.378Z,6.95
2023-10-20T02:01:59.146Z,6.96
2023-10-20T02:04:26.931Z,6.94
2023-10-20T02:06:54.312Z,6.92
2023-10-20T02:09:21.567Z,6.94
2023-10-20T02:11:48.845Z,6.94
2023-10-20T02:14:16.152Z,6.92
2023-10-20T02:16:43.611Z,6.91
2023-10-20T02:21:40.248Z,6.87
2023-10-20T02:24:09.002Z,6.86
2023-10-20T02:26:37.052Z,6.85
2023-10-20T02:29:04.410Z,6.87
2023-10-20T02:31:32.912Z,6.88
2023-10-20T02:34:00.343Z,6.88
2023-10-20T02:36:27.606Z,6.87
2023-10-20T02:38:56.334Z,6.88
2023-10-20T02:41:23.613Z,6.87
2023-10-20T02:43:50.853Z,6.89
2023-10-20T02:46:18.209Z,6.85
2023-10-20T02:48:47.814Z,6.82
2023-10-20T02:51:16.845Z,6.83
2023-10-20T02:53:44.646Z,6.82
2023-10-20T02:56:19.336Z,6.82
2023-10-20T02:58:47.664Z,6.82
2023-10-20T03:01:18.668Z,6.82
2023-10-20T03:03:47.297Z,6.80
2023-10-20T03:06:14.691Z,6.79
2023-10-20T03:08:42.021Z,6.80
2023-10-20T03:11:10.634Z,6.79
2023-10-20T03:13:38.886Z,6.80
2023-10-20T03:16:07.431Z,6.82
2023-10-20T03:18:35.229Z,6.82
2023-10-20T03:21:05.635Z,6.81
2023-10-20T03:23:34.397Z,6.83
2023-10-20T03:26:01.822Z,6.86
2023-10-20T03:28:29.706Z,6.88
2023-10-20T03:30:57.221Z,6.88
2023-10-20T03:33:24.624Z,6.87
2023-10-20T03:36:04.560Z,6.87
2023-10-20T03:38:32.695Z,6.89
2023-10-20T03:41:13.098Z,6.91
2023-10-20T03:43:40.450Z,6.90
2023-10-20T03:46:07.857Z,6.90
2023-10-20T03:48:36.808Z,6.89
2023-10-20T03:51:07.181Z,6.90
2023-10-20T03:53:45.550Z,6.90
2023-10-20T03:56:13.025Z,6.92
2023-10-20T03:58:43.560Z,6.89
2023-10-20T04:01:11.065Z,6.88
2023-10-20T04:03:39.825Z,6.87
2023-10-20T04:06:10.357Z,6.87
2023-10-20T04:08:37.747Z,6.88
2023-10-20T04:11:05.104Z,6.88
2023-10-20T04:13:33.621Z,6.89
2023-10-20T04:16:13.687Z,6.89
2023-10-20T04:18:42.620Z,6.88
2023-10-20T04:21:13.056Z,6.88
2023-10-20T04:23:41.371Z,6.88
2023-10-20T04:26:20.132Z,6.88
2023-10-20T04:28:49.437Z,6.88
2023-10-20T04:31:38.708Z,6.91
2023-10-20T04:34:24.953Z,6.92
2023-10-20T04:37:10.921Z,6.94
2023-10-20T04:39:57.214Z,6.95
2023-10-20T04:42:36.712Z,6.98
2023-10-20T04:45:23.165Z,7.02
2023-10-20T04:48:09.571Z,7.03
2023-10-20T04:50:55.607Z,7.02
2023-10-20T04:53:41.202Z,7.06
2023-10-20T04:56:17.753Z,7.07
2023-10-20T04:58:50.855Z,7.06
2023-10-20T05:01:32.176Z,7.07
2023-10-20T05:03:59.731Z,7.06
2023-10-20T05:06:27.882Z,7.08
2023-10-20T05:08:55.568Z,7.10
2023-10-20T05:11:22.955Z,7.13
2023-10-20T05:13:50.924Z,7.11
2023-10-20T05:16:18.269Z,7.09
2023-10-20T05:18:46.249Z,7.08
2023-10-20T05:21:13.668Z,7.06
2023-10-20T05:23:42.471Z,7.03
2023-10-20T05:26:10.845Z,7.02
2023-10-20T05:28:38.332Z,7.00
2023-10-20T05:31:05.606Z,6.99
2023-10-20T05:33:33.079Z,6.98
2023-10-20T05:36:02.486Z,6.97
2023-10-20T05:38:29.930Z,6.97
2023-10-20T05:40:59.485Z,6.97
2023-10-20T05:43:27.811Z,6.95
2023-10-20T05:45:55.649Z,6.94
2023-10-20T05:48:23.130Z,6.93
2023-10-20T05:50:57.217Z,6.94
2023-10-20T05:53:27.800Z,6.94
2023-10-20T05:55:55.351Z,6.92
2023-10-20T05:58:23.637Z,6.94
2023-10-20T06:01:02.379Z,6.94
2023-10-20T06:03:31.102Z,6.90
2023-10-20T06:06:00.260Z,6.87
2023-10-20T06:08:30.493Z,6.86
2023-10-20T06:11:05.678Z,6.85
2023-10-20T06:13:36.021Z,6.84
2023-10-20T06:16:12.334Z,6.82
2023-10-20T06:18:42.136Z,6.78
2023-10-20T06:21:21.027Z,6.77
2023-10-20T06:23:48.432Z,6.74
2023-10-20T06:26:16.822Z,6.74
2023-10-20T06:28:46.301Z,6.73
2023-10-20T06:31:36.174Z,6.70
2023-10-20T06:34:19.106Z,6.69
2023-10-20T06:36:49.581Z,6.66
2023-10-20T06:39:20.234Z,6.66
2023-10-20T06:41:48.484Z,6.65
2023-10-20T06:44:20.996Z,6.64
2023-10-20T06:46:48.518Z,6.65
2023-10-20T06:49:20.105Z,6.63
2023-10-20T06:51:49.245Z,6.62
2023-10-20T06:54:17.825Z,6.59
2023-10-20T06:56:48.820Z,6.59
2023-10-20T06:59:16.408Z,6.59
2023-10-20T07:01:45.651Z,6.58
2023-10-20T07:04:14.559Z,6.58
2023-10-20T07:06:41.789Z,6.57
2023-10-20T07:09:13.125Z,6.57
2023-10-20T07:11:41.255Z,6.59
2023-10-20T07:14:08.600Z,6.59
2023-10-20T07:16:36.163Z,6.56
2023-10-20T07:19:04.909Z,6.57
2023-10-20T07:21:32.382Z,6.55
2023-10-20T07:23:59.781Z,6.54
2023-10-20T07:26:27.216Z,6.54
2023-10-20T07:28:54.644Z,6.52
2023-10-20T07:31:24.805Z,6.52
2023-10-20T07:33:52.123Z,6.51
2023-10-20T07:36:20.216Z,6.52
2023-10-20T07:38:47.500Z,6.52
2023-10-20T07:41:15.670Z,6.50
2023-10-20T07:43:43.134Z,6.49
2023-10-20T07:46:19.534Z,6.50
2023-10-20T07:48:46.971Z,6.50
2023-10-20T07:51:14.586Z,6.49
2023-10-20T07:53:42.175Z,6.50
2023-10-20T07:56:09.459Z,6.50
2023-10-20T07:58:36.878Z,6.50
2023-10-20T08:01:04.476Z,6.48
2023-10-20T08:03:31.950Z,6.45
2023-10-20T08:06:04.912Z,6.46
2023-10-20T08:08:34.004Z,6.44
2023-10-20T08:11:05.096Z,6.49
2023-10-20T08:13:33.263Z,6.52
2023-10-20T08:16:04.821Z,6.52
2023-10-20T08:18:35.688Z,6.53
2023-10-20T08:21:08.572Z,6.49
2023-10-20T08:23:39.885Z,6.48
2023-10-20T08:26:07.779Z,6.47
2023-10-20T08:28:34.981Z,6.45
2023-10-20T08:31:09.860Z,6.42
2023-10-20T08:33:37.578Z,6.44
2023-10-20T08:36:16.486Z,6.40
2023-10-20T08:38:46.349Z,6.36
2023-10-20T08:41:15.553Z,6.31
2023-10-20T08:43:44.276Z,6.27
2023-10-20T08:46:14.733Z,6.25
2023-10-20T08:48:43.017Z,6.23
2023-10-20T08:51:13.662Z,6.24
2023-10-20T08:53:42.951Z,6.22
2023-10-20T08:56:13.074Z,6.19
2023-10-20T08:58:40.753Z,6.15
2023-10-20T09:01:08.265Z,6.16
2023-10-20T09:03:46.858Z,6.14
2023-10-20T09:06:18.291Z,6.13
2023-10-20T09:08:51.398Z,6.11
2023-10-20T09:11:20.987Z,6.05
2023-10-20T09:13:49.064Z,6.02
2023-10-20T09:16:17.563Z,5.98
2023-10-20T09:18:46.746Z,5.98
2023-10-20T09:21:15.816Z,5.98
2023-10-20T09:23:58.278Z,6.00
2023-10-20T09:26:28.131Z,6.01
2023-10-20T09:28:57.273Z,5.98
2023-10-20T09:31:28.310Z,5.96
2023-10-20T09:33:56.119Z,5.97
2023-10-20T09:36:26.945Z,5.97
2023-10-20T09:38:57.005Z,5.95
2023-10-20T09:41:26.464Z,5.95
2023-10-20T09:44:07.896Z,5.92
2023-10-20T09:46:54.612Z,5.91
2023-10-20T09:49:27.740Z,5.91
2023-10-20T09:51:56.933Z,5.90
2023-10-20T09:54:28.692Z,5.90
2023-10-20T09:57:00.747Z,5.92
2023-10-20T09:59:31.339Z,5.91
2023-10-20T10:02:03.353Z,5.91
2023-10-20T10:04:40.370Z,5.97
2023-10-20T10:07:10.013Z,6.01
2023-10-20T10:09:39.227Z,6.02
2023-10-20T10:12:19.534Z,6.00
2023-10-20T10:15:07.214Z,6.00
2023-10-20T10:17:48.563Z,5.99
2023-10-20T10:20:21.274Z,5.99
2023-10-20T10:23:00.448Z,6.04
2023-10-20T10:25:35.976Z,6.05
2023-10-20T10:28:10.849Z,6.06
2023-10-20T10:30:39.108Z,6.05
2023-10-20T10:33:11.800Z,6.05
2023-10-20T10:35:40.882Z,6.05
2023-10-20T10:38:22.552Z,6.10
2023-10-20T10:40:52.525Z,6.13
2023-10-20T10:43:22.440Z,6.15
2023-10-20T10:45:56.098Z,6.16
2023-10-20T10:48:29.240Z,6.16
2023-10-20T10:50:57.397Z,6.13
2023-10-20T10:53:27.382Z,6.11
2023-10-20T10:55:55.921Z,6.08
2023-10-20T10:58:24.696Z,6.10
2023-10-20T11:00:52.429Z,6.12
2023-10-20T11:03:22.436Z,6.12
2023-10-20T11:05:52.482Z,6.06
2023-10-20T11:08:20.503Z,6.05
2023-10-20T11:10:48.341Z,6.05
2023-10-20T11:13:20.968Z,6.04
2023-10-20T11:15:50.762Z,5.99
2023-10-20T11:18:18.483Z,5.99
2023-10-20T11:20:50.798Z,5.99
2023-10-20T11:23:29.211Z,6.02
2023-10-20T11:25:57.792Z,6.02
2023-10-20T11:28:28.944Z,6.00
2023-10-20T11:30:56.333Z,6.00
2023-10-20T11:33:24.004Z,5.98
2023-10-20T11:35:53.554Z,5.97
2023-10-20T11:38:20.934Z,5.97
2023-10-20T11:40:50.804Z,5.97
2023-10-20T11:43:18.402Z,5.98
2023-10-20T11:45:46.454Z,5.97
2023-10-20T11:48:13.973Z,5.96
2023-10-20T11:50:41.439Z,5.97
2023-10-20T11:53:08.702Z,6.00
2023-10-20T11:55:36.211Z,6.01
2023-10-20T11:58:05.267Z,5.99
2023-10-20T12:00:33.426Z,5.94
2023-10-20T12:03:01.109Z,5.89
2023-10-20T12:05:28.544Z,5.88
2023-10-20T12:07:56.012Z,5.88
2023-10-20T12:10:25.285Z,5.86
2023-10-20T12:12:52.918Z,5.86
2023-10-20T12:15:20.494Z,5.84
2023-10-20T12:20:16.572Z,5.89
2023-10-20T12:22:43.887Z,5.91
2023-10-20T12:25:11.230Z,5.93
2023-10-20T12:27:39.229Z,5.96
2023-10-20T12:30:07.254Z,5.96
2023-10-20T12:32:34.924Z,5.97
2023-10-20T12:35:02.385Z,5.93
2023-10-20T12:37:29.624Z,5.94
2023-10-20T12:40:00.350Z,5.93
2023-10-20T12:42:28.506Z,5.93
2023-10-20T12:44:55.750Z,5.91
2023-10-20T12:47:24.237Z,5.91
2023-10-20T12:49:55.745Z,5.90
2023-10-20T12:52:23.074Z,5.92
2023-10-20T12:54:51.854Z,5.90
2023-10-20T12:57:20.451Z,5.89
2023-10-20T12:59:48.006Z,5.87
2023-10-20T13:02:15.459Z,5.86
2023-10-20T13:04:43.205Z,5.88
2023-10-20T13:07:13.436Z,5.88
2023-10-20T13:09:42.238Z,5.92
2023-10-20T13:12:11.612Z,5.92
2023-10-20T13:14:39.064Z,5.94
2023-10-20T13:17:06.382Z,5.97
2023-10-20T13:19:34.238Z,5.94
2023-10-20T13:22:01.883Z,5.94
2023-10-20T13:24:29.135Z,5.96
2023-10-20T13:26:56.391Z,5.97
2023-10-20T13:29:23.664Z,5.96
2023-10-20T13:31:51.831Z,5.96
2023-10-20T13:34:19.231Z,5.97
2023-10-20T13:36:46.495Z,5.94
2023-10-20T13:41:44.987Z,5.93
2023-10-20T13:44:13.789Z,5.94
2023-10-20T13:46:41.169Z,5.95
2023-10-20T13:49:09.541Z,5.95
2023-10-20T13:51:43.428Z,5.95
2023-10-20T13:54:10.746Z,5.95
2023-10-20T13:56:38.187Z,5.93
2023-10-20T13:59:06.928Z,5.90
2023-10-20T14:01:35.037Z,5.86
2023-10-20T14:04:02.812Z,5.85
2023-10-20T14:06:30.333Z,5.86
2023-10-20T14:08:57.697Z,5.86
2023-10-20T14:11:25.441Z,5.86
2023-10-20T14:13:52.798Z,5.85
2023-10-20T14:16:21.800Z,5.88
2023-10-20T14:18:49.298Z,5.89
2023-10-20T14:21:16.783Z,5.88
2023-10-20T14:23:44.244Z,5.90
2023-10-20T14:26:13.830Z,5.89
2023-10-20T14:28:41.133Z,5.89
2023-10-20T14:31:08.759Z,5.89
2023-10-20T14:33:36.441Z,5.86
2023-10-20T14:36:05.090Z,5.85
2023-10-20T14:38:33.060Z,5.85
2023-10-20T14:41:03.389Z,5.85
2023-10-20T14:43:33.515Z,5.87
2023-10-20T14:46:01.236Z,5.85
2023-10-20T14:48:29.668Z,5.82
2023-10-20T14:50:58.146Z,5.83
2023-10-20T14:53:26.510Z,5.83
2023-10-20T14:55:56.355Z,5.81
2023-10-20T14:58:23.642Z,5.82
2023-10-20T15:00:51.847Z,5.81
2023-10-20T15:03:23.968Z,5.80
2023-10-20T15:05:51.919Z,5.79
2023-10-20T15:08:21.948Z,5.77
2023-10-20T15:10:49.814Z,5.76
2023-10-20T15:13:17.370Z,5.75
2023-10-20T15:15:44.608Z,5.76
2023-10-20T15:18:11.926Z,5.76
2023-10-20T15:20:41.617Z,5.75
2023-10-20T15:23:17.355Z,5.76
2023-10-20T15:25:46.442Z,5.77
2023-10-20T15:28:14.143Z,5.80
2023-10-20T15:30:41.578Z,5.81
2023-10-20T15:33:09.198Z,5.84
2023-10-20T15:35:40.221Z,5.82
2023-10-20T15:38:11.412Z,5.81
2023-10-20T15:40:39.761Z,5.81
2023-10-20T15:43:07.634Z,5.81
2023-10-20T15:45:34.996Z,5.80
2023-10-20T15:48:04.413Z,5.80
2023-10-20T15:50:32.515Z,5.82
2023-10-20T15:52:59.904Z,5.83
2023-10-20T15:55:27.285Z,5.81
2023-10-20T15:57:55.397Z,5.80
2023-10-20T16:00:22.756Z,5.79
2023-10-20T16:02:50.145Z,5.77
2023-10-20T16:05:17.708Z,5.77
2023-10-20T16:07:44.987Z,5.76
2023-10-20T16:10:12.215Z,5.77
2023-10-20T16:12:39.485Z,5.78
2023-10-20T16:15:07.866Z,5.77
2023-10-20T16:17:35.546Z,5.76
2023-10-20T16:20:04.372Z,5.74
2023-10-20T16:22:32.433Z,5.74
2023-10-20T16:25:02.833Z,5.74
2023-10-20T16:27:30.136Z,5.74
2023-10-20T16:29:59.224Z,5.74
2023-10-20T16:32:26.555Z,5.74
2023-10-20T16:34:53.869Z,5.73
2023-10-20T16:37:21.147Z,5.72
2023-10-20T16:39:48.431Z,5.72
2023-10-20T16:42:15.698Z,5.70
2023-10-20T16:44:43.043Z,5.70
2023-10-20T16:47:10.441Z,5.69
2023-10-20T16:49:38.037Z,5.68
2023-10-20T16:52:06.194Z,5.67
2023-10-20T16:54:33.423Z,5.66
2023-10-20T16:57:00.960Z,5.66
2023-10-20T16:59:28.674Z,5.66
2023-10-20T17:01:55.908Z,5.66
2023-10-20T17:04:23.553Z,5.66
2023-10-20T17:06:51.038Z,5.66
2023-10-20T17:09:18.532Z,5.66
2023-10-20T17:11:45.904Z,5.65
2023-10-20T17:14:13.780Z,5.68
2023-10-20T17:16:44.301Z,5.68
2023-10-20T17:19:11.550Z,5.68
2023-10-20T17:21:38.852Z,5.71
2023-10-20T17:24:06.614Z,5.71
2023-10-20T17:26:34.019Z,5.71
2023-10-20T17:29:01.361Z,5.71
2023-10-20T17:31:28.831Z,5.70
2023-10-20T17:33:57.867Z,5.69
2023-10-20T17:36:25.165Z,5.67
2023-10-20T17:38:52.727Z,5.65
2023-10-20T17:41:20.052Z,5.67
2023-10-20T17:43:47.277Z,5.66
2023-10-20T17:46:20.500Z,5.69
2023-10-20T17:48:48.338Z,5.68
2023-10-20T17:51:15.755Z,5.69
2023-10-20T17:53:43.143Z,5.70
2023-10-20T17:56:10.410Z,5.69
2023-10-20T17:58:39.055Z,5.69
2023-10-20T18:01:08.455Z,5.68
2023-10-20T18:03:37.278Z,5.68
2023-10-20T18:06:27.409Z,5.68
2023-10-20T18:08:55.500Z,5.67
2023-10-20T18:11:23.906Z,5.65
2023-10-20T18:13:56.661Z,5.63
2023-10-20T18:16:24.308Z,5.63
2023-10-20T18:18:52.369Z,5.64
2023-10-20T18:21:21.100Z,5.61
2023-10-20T18:23:49.157Z,5.60
2023-10-20T18:26:17.656Z,5.60
2023-10-20T18:28:45.108Z,5.60
2023-10-20T18:31:14.807Z,5.62
2023-10-20T18:33:42.734Z,5.63
2023-10-20T18:36:11.250Z,5.63
2023-10-20T18:38:38.813Z,5.63
2023-10-20T18:41:14.301Z,5.61
2023-10-20T18:43:41.664Z,5.61
2023-10-20T18:46:09.048Z,5.61
2023-10-20T18:48:36.723Z,5.60
2023-10-20T18:51:09.072Z,5.62
2023-10-20T18:53:36.584Z,5.61
2023-10-20T18:56:05.255Z,5.63
2023-10-20T18:58:33.871Z,5.62
2023-10-20T19:01:01.284Z,5.62
2023-10-20T19:03:32.669Z,5.61
2023-10-20T19:06:03.849Z,5.61
2023-10-20T19:08:31.382Z,5.61
2023-10-20T19:11:05.794Z,5.61
2023-10-20T19:13:35.025Z,5.61
2023-10-20T19:16:02.676Z,5.62
2023-10-20T19:18:30.070Z,5.64
2023-10-20T19:20:58.837Z,5.65
2023-10-20T19:23:26.845Z,5.63
2023-10-20T19:26:01.253Z,5.61
2023-10-20T19:28:28.800Z,5.62
2023-10-20T19:31:01.597Z,5.61
2023-10-20T19:33:31.874Z,5.62
2023-10-20T19:36:03.355Z,5.62
2023-10-20T19:38:30.745Z,5.60
2023-10-20T19:40:58.918Z,5.63
2023-10-20T19:43:27.472Z,5.64
2023-10-20T19:45:54.912Z,5.64
2023-10-20T19:48:22.259Z,5.65
2023-10-20T19:50:49.692Z,5.64
2023-10-20T19:53:17.134Z,5.66
2023-10-20T19:55:46.881Z,5.66
2023-10-20T19:58:14.475Z,5.66
2023-10-20T20:00:41.998Z,5.66
2023-10-20T20:03:09.713Z,5.66
2023-10-20T20:05:37.211Z,5.68
2023-10-20T20:08:04.694Z,5.68
2023-10-20T20:10:32.324Z,5.71
2023-10-20T20:12:59.659Z,5.70
2023-10-20T20:15:27.205Z,5.72
2023-10-20T20:17:56.611Z,5.71
2023-10-20T20:20:23.910Z,5.71
2023-10-20T20:22:51.239Z,5.72
2023-10-20T20:25:18.463Z,5.73
2023-10-20T20:27:45.746Z,5.72
2023-10-20T20:30:13.241Z,5.73
2023-10-20T20:32:40.620Z,5.72
2023-10-20T20:35:09.972Z,5.73
2023-10-20T20:37:37.837Z,5.75
2023-10-20T20:40:08.685Z,5.76
2023-10-20T20:42:36.559Z,5.79
2023-10-20T20:45:04.545Z,5.81
2023-10-20T20:47:32.828Z,5.84
2023-10-20T20:50:00.768Z,5.85
2023-10-20T20:52:28.094Z,5.86
2023-10-20T20:54:57.864Z,5.88
2023-10-20T20:57:26.518Z,5.89
2023-10-20T20:59:53.937Z,5.91
2023-10-20T21:02:21.227Z,5.92
2023-10-20T21:04:48.638Z,5.92
2023-10-20T21:07:15.954Z,5.94
2023-10-20T21:09:44.174Z,5.95
2023-10-20T21:12:11.686Z,5.96
2023-10-20T21:14:39.111Z,5.97
2023-10-20T21:17:06.600Z,5.98
2023-10-20T21:19:35.674Z,5.98
2023-10-20T21:22:04.122Z,6.01
2023-10-20T21:24:31.685Z,6.03
2023-10-20T21:26:59.142Z,6.05
2023-10-20T21:29:26.992Z,6.07
2023-10-20T21:31:54.713Z,6.09
2023-10-20T21:34:23.911Z,6.09
2023-10-20T21:36:51.190Z,6.11
2023-10-20T21:39:20.195Z,6.14
2023-10-20T21:41:47.493Z,6.16
2023-10-20T21:44:14.823Z,6.17
2023-10-20T21:46:42.398Z,6.20
2023-10-20T21:49:09.925Z,6.22
2023-10-20T21:51:37.323Z,6.24
2023-10-20T21:54:08.417Z,6.24
2023-10-20T21:56:36.260Z,6.28
2023-10-20T21:59:03.607Z,6.30
2023-10-20T22:01:34.041Z,6.32
2023-10-20T22:04:01.408Z,6.36
2023-10-20T22:06:28.894Z,6.38
2023-10-20T22:08:56.202Z,6.40
2023-10-20T22:11:23.650Z,6.44
2023-10-20T22:13:51.038Z,6.49
2023-10-20T22:16:18.507Z,6.53
2023-10-20T22:18:49.842Z,6.57
2023-10-20T22:21:17.425Z,6.62
2023-10-20T22:23:44.792Z,6.65
2023-10-20T22:26:12.456Z,6.69
2023-10-20T22:28:39.852Z,6.73
2023-10-20T22:31:07.384Z,6.79
2023-10-20T22:33:34.860Z,6.81
2023-10-20T22:36:03.964Z,6.85
2023-10-20T22:38:31.629Z,6.88
2023-10-20T22:40:59.049Z,6.91
2023-10-20T22:43:27.073Z,6.95
2023-10-20T22:45:54.469Z,6.97
2023-10-20T22:48:21.838Z,7.00
2023-10-20T22:50:49.412Z,7.03
2023-10-20T22:53:16.821Z,7.06
2023-10-20T22:55:44.303Z,7.10
2023-10-20T22:58:11.752Z,7.14
2023-10-20T23:00:39.843Z,7.17
2023-10-20T23:03:07.265Z,7.20
2023-10-20T23:05:34.705Z,7.26
2023-10-20T23:08:07.379Z,7.29
2023-10-20T23:10:36.857Z,7.33
2023-10-20T23:13:05.720Z,7.36
2023-10-20T23:15:40.786Z,7.40
2023-10-20T23:18:08.486Z,7.46
2023-10-20T23:20:37.054Z,7.51
2023-10-20T23:23:05.288Z,7.55
2023-10-20T23:25:34.543Z,7.57
2023-10-20T23:28:03.904Z,7.59
2023-10-20T23:30:31.386Z,7.66
2023-10-20T23:32:58.806Z,7.70
2023-10-20T23:35:26.111Z,7.73
2023-10-20T23:37:53.410Z,7.79
2023-10-20T23:40:20.785Z,7.83
2023-10-20T23:42:48.052Z,7.87
2023-10-20T23:45:15.620Z,7.90
2023-10-20T23:47:42.953Z,7.90
2023-10-20T23:50:10.538Z,7.91
2023-10-20T23:52:37.886Z,7.92
2023-10-20T23:55:05.649Z,7.92
2023-10-20T23:57:33.009Z,7.94
